Latest Weather Observations for Wiluna Airport

IDW60801

Issued at 11:04 pm WST Wednesday 8 July 2020 (issued every 10 minutes, with the page automatically refreshed every 10 minutes)

About weather observations | Map of weather stations | Latest weather observations for WA | Other Formats
Station Details ID: 013044 Name: WILUNA AERO Lat: -26.63 Lon: 120.22 Height: 502.4 m
Data from the previous 72 hours. | See also: Recent months at Wiluna Airport
Date/Time
WST
Temp
°C
App
Temp
°C
Dew
Point
°C
Rel
Hum
%
Delta-T
°C
Wind Press
QNH
hPa
Press
MSL
hPa
Rain since
9am
mm
Dir  Spd
km/h
Gust
km/h
Spd
kts
Gust
kts
08/11:00pm 13.7 8.8 4.0 52 4.5 S 19 22 10 12 1020.7 1020.3 0.0
08/10:30pm 13.3 9.8 3.4 51 4.6 S 11 13 6 7 1020.8 1020.4 0.0
08/10:00pm 13.7 10.5 3.2 49 4.8 SSE 9 11 5 6 1020.7 1020.3 0.0
08/09:30pm 14.7 12.0 3.8 48 5.1 SSE 7 11 4 6 1020.7 1020.3 0.0
08/09:00pm 15.4 11.6 3.9 46 5.4 SSE 13 17 7 9 1020.4 1020.1 0.0
08/08:30pm 15.9 12.4 3.4 43 5.9 SSE 11 15 6 8 1020.4 1020.1 0.0
08/08:00pm 16.6 12.6 3.0 40 6.4 S 13 19 7 10 1020.4 1020.1 0.0
08/07:30pm 17.1 13.4 2.3 37 6.9 S 11 13 6 7 1020.2 1019.9 0.0
08/07:00pm 18.0 14.7 2.3 35 7.3 S 9 11 5 6 1020.0 1019.7 0.0
08/06:30pm 19.2 15.1 2.1 32 8.0 S 13 15 7 8 1019.7 1019.4 0.0
08/06:00pm 20.3 16.1 1.7 29 8.7 SSE 13 15 7 8 1019.3 1018.9 0.0
08/05:30pm 21.1 17.9 2.9 30 8.8 SE 9 11 5 6 1018.8 1018.4 0.0
08/05:00pm 22.5 18.8 2.1 26 9.8 SE 11 15 6 8 1018.7 1018.3 0.0
08/04:30pm 23.2 19.3 0.9 23 10.6 S 11 17 6 9 1018.7 1018.3 0.0
08/04:00pm 23.6 19.7 1.3 23 10.7 SSE 11 17 6 9 1018.6 1018.2 0.0
08/03:30pm 23.4 19.8 0.5 22 10.8 SSW 9 15 5 8 1018.7 1018.3 0.0
08/03:00pm 23.3 19.8 1.0 23 10.6 SSW 9 17 5 9 1018.7 1018.3 0.0
08/02:30pm 23.4 20.4 1.7 24 10.4 SSE 7 13 4 7 1018.9 1018.5 0.0
08/02:00pm 22.6 19.3 2.7 27 9.7 SSW 9 13 5 7 1019.2 1018.8 0.0
08/01:30pm 21.6 18.3 2.3 28 9.3 SSW 9 15 5 8 1019.7 1019.4 0.0
08/01:00pm 20.7 17.9 3.0 31 8.5 SSE 7 11 4 6 1020.1 1019.8 0.0
08/12:30pm 20.2 16.7 3.4 33 8.2 SSE 11 17 6 9 1020.8 1020.4 0.0
08/12:00pm 19.2 15.8 3.8 36 7.5 SSE 11 15 6 8 1021.5 1021.2 0.0
08/11:30am 18.6 14.4 4.0 38 7.1 SE 15 20 8 11 1022.0 1021.7 0.0
08/11:00am 17.2 13.0 3.8 41 6.4 SSE 15 20 8 11 1022.5 1022.2 0.0
08/10:30am 16.7 12.9 4.1 43 6.1 SE 13 19 7 10 1023.1 1022.8 0.0
08/10:00am 15.5 11.3 3.9 46 5.5 SSE 15 19 8 10 1023.3 1023.0 0.0
08/09:30am 14.7 10.5 3.8 48 5.1 SSE 15 17 8 9 1023.6 1023.3 0.0
08/09:00am 13.9 9.3 3.7 50 4.7 S 17 20 9 11 1023.8 1023.5 0.0
08/08:30am 12.3 9.0 4.8 60 3.5 S 11 13 6 7 1023.4 1023.1 0.0
08/08:00am 9.5 8.2 4.3 70 2.4 CALM 0 0 0 0 1023.1 1022.8 0.0
08/07:30am 8.2 5.5 3.7 73 2.0 S 7 11 4 6 1023.1 1022.8 0.0
08/07:00am 8.4 5.3 3.8 73 2.0 S 9 11 5 6 1022.6 1022.3 0.0
08/06:30am 8.5 5.7 3.4 70 2.3 S 7 11 4 6 1022.3 1022.0 0.0
08/06:00am 9.9 6.9 4.3 68 2.5 S 9 11 5 6 1022.0 1021.7 0.0
08/05:30am 9.6 6.9 3.6 66 2.7 S 7 9 4 5 1021.9 1021.6 0.0
08/05:00am 10.5 7.6 4.4 66 2.8 S 9 11 5 6 1021.8 1021.5 0.0
08/04:30am 10.9 8.0 4.6 65 2.9 S 9 11 5 6 1021.6 1021.3 0.0
08/04:00am 11.8 8.7 5.4 65 3.0 S 11 13 6 7 1021.7 1021.4 0.0
08/03:30am 11.4 8.3 5.5 67 2.8 S 11 13 6 7 1021.9 1021.6 0.0
08/03:00am 11.6 8.8 5.3 65 3.0 S 9 11 5 6 1021.8 1021.5 0.0
08/02:30am 12.6 9.6 5.8 63 3.3 SE 11 15 6 8 1021.8 1021.5 0.0
08/02:00am 12.7 9.3 5.8 63 3.3 SSE 13 17 7 9 1021.7 1021.4 0.0
08/01:30am 13.2 10.0 5.1 58 3.9 S 11 13 6 7 1022.0 1021.7 0.0
08/01:00am 13.7 10.7 4.0 52 4.5 S 9 11 5 6 1022.2 1021.9 0.0
08/12:30am 13.4 10.3 1.4 44 5.3 S 7 11 4 6 1022.2 1021.9 0.0
08/12:00am 13.6 10.0 0.6 41 5.6 SW 9 13 5 7 1022.2 1021.9 0.0
 
Date/Time
WST
Temp
°C
App
Temp
°C
Dew
Point
°C
Rel
Hum
%
Delta-T
°C
Wind Press
QNH
hPa
Press
MSL
hPa
Rain since
9am
mm
Dir  Spd
km/h
Gust
km/h
Spd
kts
Gust
kts
07/11:30pm 12.7 9.4 -0.2 41 5.5 SW 7 9 4 5 1021.9 1021.6 0.0
07/11:00pm 12.9 9.1 -0.7 39 5.7 SW 9 11 5 6 1022.1 1021.8 0.0
07/10:30pm 13.3 10.1 -0.3 39 5.8 SW 6 7 3 4 1022.0 1021.7 0.0
07/10:00pm 15.4 11.8 0.4 36 6.6 SW 9 13 5 7 1022.2 1021.9 0.0
07/09:30pm 15.6 12.4 0.6 36 6.6 SW 7 15 4 8 1022.1 1021.8 0.0
07/09:00pm 15.3 10.9 0.3 36 6.6 NNE 13 15 7 8 1021.9 1021.6 0.0
07/08:30pm 15.7 12.6 0.3 35 6.8 WNW 6 7 3 4 1021.8 1021.5 0.0
07/08:00pm 17.8 14.4 1.7 34 7.4 WNW 9 11 5 6 1021.7 1021.4 0.0
07/07:30pm 16.1 12.8 -1.5 30 7.5 WNW 6 9 3 5 1021.7 1021.4 0.0
07/07:00pm 17.8 14.5 -1.4 27 8.3 WNW 6 7 3 4 1021.5 1021.2 0.0
07/06:30pm 18.8 15.6 -0.6 27 8.6 WNW 6 7 3 4 1021.2 1020.9 0.0
07/06:00pm 20.8 17.4 -0.5 24 9.6 WNW 7 7 4 4 1021.2 1020.9 0.0
07/05:30pm 23.2 19.4 -1.0 20 11.1 WNW 9 13 5 7 1020.8 1020.4 0.0
07/05:00pm 24.7 20.1 -1.2 18 11.9 WNW 13 19 7 10 1020.4 1020.1 0.0
07/04:30pm 24.9 22.3 3.0 24 10.9 SE 6 11 3 6 1020.2 1019.9 0.0
07/04:00pm 24.6 21.4 3.3 25 10.6 SSE 9 15 5 8 1020.2 1019.9 0.0
07/03:30pm 24.1 20.7 4.0 27 10.1 SSE 11 15 6 8 1020.4 1020.1 0.0
07/03:00pm 24.9 21.9 4.1 26 10.5 SW 9 15 5 8 1020.4 1020.1 0.0
07/02:30pm 24.7 22.0 3.9 26 10.5 SE 7 11 4 6 1020.8 1020.4 0.0
07/02:00pm 24.1 21.6 5.0 29 9.8 S 7 13 4 7 1021.0 1020.6 0.0
07/01:30pm 22.9 19.9 5.8 33 8.9 SSE 11 13 6 7 1021.3 1021.0 0.0
07/01:00pm 22.3 20.2 5.7 34 8.5 WSW 6 9 3 5 1021.7 1021.4 0.0
07/12:30pm 21.8 20.1 6.1 36 8.1 S 4 9 2 5 1022.3 1022.0 0.0
07/12:00pm 21.1 19.3 7.0 40 7.4 ESE 6 9 3 5 1023.0 1022.7 0.0
07/11:30am 20.8 19.0 7.8 43 6.9 ESE 7 13 4 7 1023.5 1023.2 0.0
07/11:00am 19.2 17.4 7.9 48 5.9 ESE 7 13 4 7 1023.8 1023.5 0.0
07/10:30am 18.0 15.3 7.4 50 5.5 SE 11 17 6 9 1024.2 1023.9 0.0
07/10:00am 17.4 15.1 7.5 52 5.1 SE 9 13 5 7 1024.6 1024.4 0.0
07/09:30am 15.9 13.6 7.4 57 4.3 WSW 9 11 5 6 1024.7 1024.5 0.0
07/09:00am 14.7 12.7 7.3 61 3.7 WSW 7 9 4 5 1024.6 1024.4 0.0
07/08:30am 13.9 13.1 6.7 62 3.6 CALM 0 0 0 0 1024.3 1024.0 0.0
07/08:00am 10.9 9.5 3.7 61 3.3 CALM 0 0 0 0 1024.0 1023.7 0.0
07/07:30am 7.7 5.7 0.2 59 3.1 CALM 0 0 0 0 1023.9 1023.6 0.0
07/07:00am 6.3 3.1 -0.4 62 2.6 WSW 6 7 3 4 1023.7 1023.4 0.0
07/06:30am 6.3 4.1 -1.8 56 3.1 CALM 0 0 0 0 1023.4 1023.1 0.0
07/06:00am 6.5 4.3 -1.6 56 3.1 CALM 0 0 0 0 1023.2 1022.9 0.0
07/05:30am 6.8 4.6 -1.8 54 3.3 CALM 0 0 0 0 1023.0 1022.7 0.0
07/05:00am 7.5 5.3 -1.2 54 3.4 CALM 0 0 0 0 1022.8 1022.4 0.0
07/04:30am 7.6 4.7 -1.4 53 3.5 WSW 4 6 2 3 1022.8 1022.4 0.0
07/04:00am 8.1 4.6 -1.4 51 3.7 WSW 7 9 4 5 1022.8 1022.4 0.0
07/03:30am 8.1 5.5 -1.4 51 3.7 WSW 2 9 1 5 1022.9 1022.5 0.0
07/03:00am 8.3 6.0 -2.0 48 4.0 CALM 0 0 0 0 1022.8 1022.4 0.0
07/02:30am 8.9 6.3 -1.8 47 4.2 WSW 2 6 1 3 1022.5 1022.2 0.0
07/02:00am 9.6 5.6 -2.0 44 4.5 WSW 9 13 5 7 1022.3 1022.0 0.0
07/01:30am 10.4 8.2 -1.9 42 4.9 CALM 0 0 0 0 1022.2 1021.9 0.0
07/01:00am 10.4 7.0 -1.9 42 4.9 WSW 6 9 3 5 1022.2 1021.9 0.0
07/12:49am 10.7 7.3 -1.7 42 5.0 WSW 6 9 3 5 1022.1 1021.8 0.0
07/12:30am 11.8 8.3 -1.7 39 5.5 WSW 7 7 4 4 1022.1 1021.8 0.0
07/12:20am 12.2 8.9 -1.3 39 5.6 WSW 6 9 3 5 1022.2 1021.9 0.0
07/12:00am 13.5 8.2 -0.9 37 6.0 WSW 17 22 9 12 1022.2 1021.9 0.0
 
Date/Time
WST
Temp
°C
App
Temp
°C
Dew
Point
°C
Rel
Hum
%
Delta-T
°C
Wind Press
QNH
hPa
Press
MSL
hPa
Rain since
9am
mm
Dir  Spd
km/h
Gust
km/h
Spd
kts
Gust
kts
06/11:30pm 12.2 8.6 -2.0 37 5.8 N 7 9 4 5 1021.7 1021.4 0.0
06/11:00pm 14.9 10.7 -0.8 34 6.7 N 11 13 6 7 1021.7 1021.4 0.0
06/10:30pm 12.9 9.0 -1.4 37 5.9 N 9 11 5 6 1021.9 1021.6 0.0
06/10:00pm 13.7 11.1 -1.5 35 6.3 N 2 6 1 3 1022.1 1021.8 0.0
06/09:30pm 16.5 12.7 -1.1 30 7.6 N 9 13 5 7 1021.9 1021.6 0.0
06/09:00pm 16.9 12.3 -0.8 30 7.7 N 13 15 7 8 1021.8 1021.5 0.0
06/08:30pm 16.9 12.0 -0.8 30 7.7 N 15 17 8 9 1021.9 1021.6 0.0
06/08:00pm 16.1 11.6 -0.6 32 7.2 N 13 13 7 7 1021.9 1021.6 0.0
06/07:30pm 15.5 11.3 -1.1 32 7.1 N 11 11 6 6 1021.9 1021.6 0.0
06/07:00pm 15.6 12.1 -1.4 31 7.2 N 7 9 4 5 1021.7 1021.4 0.0
06/06:30pm 16.6 13.1 -1.5 29 7.7 N 7 9 4 5 1021.4 1021.1 0.0
06/06:00pm 18.8 15.4 -0.6 27 8.6 N 7 9 4 5 1021.1 1020.7 0.0
06/05:30pm 21.0 17.6 -0.9 23 9.8 N 7 9 4 5 1020.8 1020.4 0.0
06/05:00pm 22.8 19.0 -0.6 21 10.7 N 9 11 5 6 1020.5 1020.2 0.0
06/04:30pm 23.7 20.3 -0.6 20 11.2 N 7 11 4 6 1020.5 1020.2 0.0
06/04:00pm 23.1 19.3 -0.4 21 10.8 N 9 13 5 7 1020.7 1020.3 0.0
06/03:30pm 23.4 19.2 -0.8 20 11.1 N 11 17 6 9 1020.8 1020.4 0.0
06/03:00pm 23.9 19.8 -0.4 20 11.3 NNW 11 15 6 8 1020.7 1020.3 0.0
06/02:30pm 23.2 17.8 -1.0 20 11.1 NW 17 26 9 14 1020.9 1020.5 0.0
06/02:00pm 23.6 17.9 -0.6 20 11.1 NW 19 30 10 16 1021.1 1020.7 0.0
06/01:30pm 24.8 19.5 -0.4 19 11.8 NNW 17 30 9 16 1021.3 1021.0 0.0
06/01:00pm 23.5 19.0 -0.1 21 11.0 NNW 13 20 7 11 1021.9 1021.6 0.0
06/12:30pm 21.9 17.0 -0.8 22 10.3 NNW 15 20 8 11 1022.4 1022.1 0.0
06/12:00pm 20.8 15.9 -0.5 24 9.6 N 15 20 8 11 1022.8 1022.4 0.0
06/11:30am 20.7 14.8 -0.6 24 9.6 N 20 28 11 15 1023.1 1022.8 0.0
06/11:00am 20.1 14.2 -0.5 25 9.2 N 20 32 11 17 1023.4 1023.1 0.0
06/10:30am 19.7 14.4 -0.3 26 9.0 N 17 30 9 16 1023.7 1023.4 0.0
06/10:00am 19.2 13.4 -0.2 27 8.7 NNW 20 28 11 15 1024.0 1023.7 0.0
06/09:30am 17.7 13.4 0.8 32 7.6 NNE 13 17 7 9 1023.8 1023.5 0.0
06/09:00am 16.2 13.2 1.1 36 6.8 NNE 6 9 3 5 1024.2 1023.9 0.0
06/08:30am 14.9 11.8 1.1 39 6.1 NW 7 11 4 6 1023.8 1023.5 0.0
06/08:00am 13.9 10.8 1.2 42 5.6 NW 7 9 4 5 1023.6 1023.3 0.0
06/07:30am 13.7 10.8 1.4 43 5.4 NW 6 9 3 5 1023.4 1023.1 0.0
06/07:00am 11.7 8.6 1.4 49 4.5 NW 7 9 4 5 1023.0 1022.7 0.0
06/06:30am 10.8 7.8 0.8 50 4.3 NW 6 7 3 4 1022.9 1022.5 0.0
06/06:00am 11.5 8.2 0.3 46 4.7 NW 7 9 4 5 1022.5 1022.2 0.0
06/05:30am 10.8 8.8 0.2 48 4.4 CALM 0 6 0 3 1021.8 1021.5 0.0
06/05:00am 12.1 8.9 0.5 45 4.9 N 7 13 4 7 1021.2 1020.9 0.0
06/04:30am 12.7 9.5 0.8 44 5.2 NNE 7 9 4 5 1020.7 1020.3 0.0
06/04:00am 14.0 10.8 1.0 41 5.7 NNE 7 13 4 7 1020.5 1020.2 0.0
06/03:30am 15.1 11.5 0.9 38 6.3 N 9 13 5 7 1020.7 1020.3 0.0
06/03:00am 15.8 11.1 1.2 37 6.5 NNE 15 20 8 11 1020.3 1020.0 0.0
06/02:30am 16.1 11.1 1.4 37 6.6 NNE 17 22 9 12 1020.3 1020.0 0.0
06/02:00am 16.0 11.4 1.3 37 6.6 NNE 15 17 8 9 1020.4 1020.1 0.0
06/01:30am 17.1 12.1 1.5 35 7.1 NNE 17 20 9 11 1020.3 1020.0 0.0
06/01:00am 17.3 12.4 2.1 36 7.0 NNE 17 22 9 12 1020.4 1020.1 0.0
06/12:30am 17.8 12.9 2.2 35 7.3 NNE 17 24 9 13 1020.5 1020.2 0.0
06/12:00am 18.2 14.1 2.5 35 7.4 N 13 20 7 11 1020.7 1020.3 0.0
 
Date/Time
WST
Temp
°C
App
Temp
°C
Dew
Point
°C
Rel
Hum
%
Delta-T
°C
Wind Press
QNH
hPa
Press
MSL
hPa
Rain since
9am
mm
Dir  Spd
km/h
Gust
km/h
Spd
kts
Gust
kts
05/11:30pm 18.8 14.3 2.2 33 7.8 NNE 15 22 8 12 1020.4 1020.1 0.0

Other formats

Comma delimited format used in spreadsheet applications
http://www.bom.gov.au/fwo/IDW60801/IDW60801.95439.axf

JavaScript Object Notation format (JSON) in row-major order
http://www.bom.gov.au/fwo/IDW60801/IDW60801.95439.json

Data quality

Most of these data are generated automatically and are frequently updated. Quality checks on data are not normally performed. It is possible for incorrect values to appear. Refer to information at About Latest Weather Observations and please check the disclaimer before using these data.